Time;durP1;ratioP1;P1;durP2;ratioP2;P2;SDS_P1;SDS_P2;PMS_P1;PMS_P2;Temp;Humidity;BMP_temperature;BMP_pressure;BME280_temperature;BME280_humidity;BME280_pressure;Samples;Min_cycle;Max_cycle;Signal;HPM_P1;HPM_P2
2023/10/24 00:01:04;;;;;;;4.07;2.57;;;13.60;99.90;;;;;;4985574;28;20731;-64
2023/10/24 00:03:30;;;;;;;4.00;2.30;;;13.60;99.90;;;;;;4986778;28;20591;-66
2023/10/24 00:05:56;;;;;;;3.70;2.50;;;13.60;99.90;;;;;;4986917;28;20481;-65
2023/10/24 00:08:21;;;;;;;3.23;2.63;;;13.60;99.90;;;;;;4987104;28;20191;-63
2023/10/24 00:10:47;;;;;;;2.93;2.73;;;13.50;99.90;;;;;;4986767;28;20430;-65
2023/10/24 00:13:13;;;;;;;4.30;2.80;;;13.60;99.90;;;;;;4984809;28;20278;-66
2023/10/24 00:15:38;;;;;;;3.30;3.00;;;13.60;99.90;;;;;;4986902;28;20597;-67
2023/10/24 00:18:04;;;;;;;4.20;2.60;;;13.50;99.90;;;;;;4978766;28;20237;-65
2023/10/24 00:20:30;;;;;;;5.73;2.80;;;13.50;99.90;;;;;;4985785;28;20287;-65
2023/10/24 00:22:55;;;;;;;4.53;3.17;;;13.60;99.90;;;;;;4985664;28;20194;-64
2023/10/24 00:25:21;;;;;;;3.60;2.43;;;13.60;99.90;;;;;;4984893;28;20445;-64
2023/10/24 00:27:47;;;;;;;5.90;3.23;;;13.60;99.90;;;;;;4986013;28;20187;-64
2023/10/24 00:30:13;;;;;;;4.47;3.10;;;13.60;99.90;;;;;;4979539;28;20669;-65
2023/10/24 00:32:38;;;;;;;5.67;2.97;;;13.60;99.90;;;;;;4987059;28;20549;-66
2023/10/24 00:35:04;;;;;;;4.80;2.87;;;13.60;99.90;;;;;;4988697;28;20445;-64
2023/10/24 00:37:30;;;;;;;3.03;2.63;;;13.60;99.90;;;;;;4988638;28;20206;-67
2023/10/24 00:39:55;;;;;;;6.30;2.53;;;13.60;99.90;;;;;;4988813;28;20542;-66
2023/10/24 00:42:21;;;;;;;6.80;3.23;;;13.60;99.90;;;;;;4987720;28;20188;-66
2023/10/24 00:44:47;;;;;;;4.00;2.80;;;13.60;99.90;;;;;;4986059;28;20246;-67
2023/10/24 00:47:14;;;;;;;7.27;3.43;;;13.60;99.90;;;;;;4989339;28;20191;-64
2023/10/24 00:49:40;;;;;;;3.33;2.90;;;13.70;99.90;;;;;;4988969;28;20265;-66
2023/10/24 00:52:06;;;;;;;4.27;3.07;;;13.70;99.90;;;;;;4987515;28;20434;-65
2023/10/24 00:54:34;;;;;;;4.40;3.37;;;13.70;99.90;;;;;;4987989;28;20419;-66
2023/10/24 00:57:03;;;;;;;3.93;3.00;;;13.70;99.90;;;;;;4989056;28;20788;-65
2023/10/24 00:59:30;;;;;;;9.00;3.67;;;13.70;99.90;;;;;;4978099;28;20530;-65
2023/10/24 01:01:56;;;;;;;3.43;2.73;;;13.70;99.90;;;;;;4979559;28;20429;-64
2023/10/24 01:04:23;;;;;;;3.20;2.90;;;13.70;99.90;;;;;;4986596;28;20466;-64
2023/10/24 01:06:48;;;;;;;4.60;2.60;;;13.70;99.90;;;;;;4988479;28;20429;-66
2023/10/24 01:09:14;;;;;;;3.47;3.03;;;13.70;99.90;;;;;;4988718;28;20423;-67
2023/10/24 01:11:40;;;;;;;4.60;2.87;;;13.70;99.90;;;;;;4988395;28;20191;-64
2023/10/24 01:14:06;;;;;;;3.37;2.67;;;13.70;99.90;;;;;;4987103;28;20207;-66
2023/10/24 01:16:42;;;;;;;6.83;3.00;;;13.70;99.90;;;;;;4988805;28;20194;-66
2023/10/24 01:19:07;;;;;;;7.07;3.53;;;13.70;99.90;;;;;;4988267;28;20205;-68
2023/10/24 01:21:33;;;;;;;3.17;2.40;;;13.80;99.90;;;;;;4988289;28;20427;-65
2023/10/24 01:23:59;;;;;;;4.83;2.70;;;13.80;99.90;;;;;;4988069;28;20288;-66
2023/10/24 01:26:26;;;;;;;4.60;2.53;;;13.80;99.90;;;;;;4988959;28;20191;-65
2023/10/24 01:28:52;;;;;;;6.53;2.40;;;13.80;99.90;;;;;;4990015;28;20219;-64
2023/10/24 01:31:17;;;;;;;3.27;2.20;;;13.90;99.90;;;;;;4989792;28;20526;-63
2023/10/24 01:33:43;;;;;;;2.50;2.23;;;13.90;99.90;;;;;;4989027;28;20210;-66
2023/10/24 01:36:09;;;;;;;3.00;2.30;;;13.90;99.90;;;;;;4992372;28;20233;-66
2023/10/24 01:38:34;;;;;;;2.87;2.10;;;13.90;99.90;;;;;;5007140;28;20607;-64
2023/10/24 01:41:00;;;;;;;2.70;2.50;;;13.80;99.90;;;;;;4992082;28;20179;-67
2023/10/24 01:43:25;;;;;;;2.80;1.97;;;13.80;99.90;;;;;;4990755;28;20912;-64
2023/10/24 01:45:51;;;;;;;4.73;2.27;;;13.90;99.90;;;;;;4990575;28;20743;-66
2023/10/24 01:48:32;;;;;;;3.90;2.23;;;13.80;99.90;;;;;;4985112;28;20208;-66
2023/10/24 01:50:58;;;;;;;4.63;2.07;;;13.90;99.90;;;;;;4981980;28;20438;-64
2023/10/24 01:53:23;;;;;;;2.17;1.97;;;13.90;99.90;;;;;;4991272;28;20183;-67
2023/10/24 01:55:49;;;;;;;1.83;1.63;;;13.90;99.90;;;;;;4991120;28;20187;-64
2023/10/24 01:58:15;;;;;;;2.40;1.83;;;13.90;99.90;;;;;;4991826;28;20191;-67
2023/10/24 02:00:40;;;;;;;4.83;2.00;;;13.90;99.90;;;;;;4991097;28;20190;-64
2023/10/24 02:03:06;;;;;;;3.43;2.27;;;13.90;99.90;;;;;;4990627;28;20646;-66
2023/10/24 02:05:31;;;;;;;2.87;2.07;;;13.90;99.90;;;;;;4991494;28;21146;-65
2023/10/24 02:07:57;;;;;;;1.90;1.63;;;13.90;99.90;;;;;;4990932;28;20191;-66
2023/10/24 02:10:23;;;;;;;4.17;2.27;;;13.90;99.90;;;;;;4992015;28;20202;-63
2023/10/24 02:12:48;;;;;;;3.53;2.03;;;13.90;99.90;;;;;;4990202;28;20376;-66
2023/10/24 02:15:14;;;;;;;2.73;2.00;;;13.90;99.90;;;;;;4991311;28;20188;-64
2023/10/24 02:17:41;;;;;;;3.23;2.03;;;13.90;99.90;;;;;;4981567;28;20187;-65
2023/10/24 02:20:08;;;;;;;4.20;1.93;;;14.00;99.90;;;;;;4991086;28;20195;-65
2023/10/24 02:22:34;;;;;;;3.60;2.10;;;13.90;99.90;;;;;;4980425;28;20914;-66
2023/10/24 02:24:59;;;;;;;5.07;1.87;;;13.90;99.90;;;;;;4991041;28;20466;-65
2023/10/24 02:27:25;;;;;;;1.70;1.60;;;13.90;99.90;;;;;;4991103;28;20188;-66
2023/10/24 02:29:51;;;;;;;3.40;1.60;;;13.90;99.90;;;;;;4991147;28;20273;-65
2023/10/24 02:32:17;;;;;;;2.53;1.90;;;13.90;99.90;;;;;;4991027;28;20195;-66
2023/10/24 02:34:46;;;;;;;3.47;1.73;;;13.90;99.90;;;;;;4989909;28;20183;-65
2023/10/24 02:37:12;;;;;;;1.83;1.60;;;13.90;99.90;;;;;;4991352;28;20441;-66
2023/10/24 02:39:38;;;;;;;6.50;1.80;;;13.90;99.90;;;;;;4997147;28;20426;-67
2023/10/24 02:42:03;;;;;;;2.97;1.50;;;13.90;99.90;;;;;;4991245;28;20604;-65
2023/10/24 02:44:29;;;;;;;3.77;2.07;;;13.90;99.90;;;;;;4986282;28;21008;-64
2023/10/24 02:46:55;;;;;;;2.30;1.67;;;13.90;99.90;;;;;;4990248;28;20192;-68
2023/10/24 02:49:20;;;;;;;2.00;1.60;;;13.90;99.90;;;;;;4991822;28;20310;-66
2023/10/24 02:51:46;;;;;;;1.83;1.50;;;13.90;99.90;;;;;;4989891;28;20195;-66
2023/10/24 02:54:12;;;;;;;1.60;1.47;;;14.00;99.90;;;;;;4990622;28;20186;-67
2023/10/24 02:56:37;;;;;;;1.47;1.37;;;14.00;99.90;;;;;;4992500;28;20187;-66
2023/10/24 02:59:04;;;;;;;2.90;1.37;;;14.00;99.90;;;;;;4993524;28;20192;-66
2023/10/24 03:01:30;;;;;;;3.43;1.80;;;14.00;99.90;;;;;;4991611;28;20179;-67
2023/10/24 03:03:55;;;;;;;2.00;1.40;;;14.00;99.90;;;;;;4988920;28;20858;-67
2023/10/24 03:06:21;;;;;;;2.00;1.60;;;13.90;99.90;;;;;;4990428;28;20219;-65
2023/10/24 03:08:48;;;;;;;3.73;1.70;;;13.90;99.90;;;;;;4989911;28;20211;-65
2023/10/24 03:11:23;;;;;;;3.13;2.10;;;13.90;99.90;;;;;;4989737;28;20271;-65
2023/10/24 03:13:51;;;;;;;1.93;1.57;;;13.90;99.90;;;;;;4988259;28;20428;-66
2023/10/24 03:16:17;;;;;;;2.07;1.70;;;13.80;99.90;;;;;;4990058;28;20526;-66
2023/10/24 03:18:42;;;;;;;2.30;1.30;;;13.80;99.90;;;;;;4990616;28;20422;-65
2023/10/24 03:21:08;;;;;;;2.70;1.50;;;13.80;99.90;;;;;;4988892;28;20668;-66
2023/10/24 03:23:34;;;;;;;1.30;1.20;;;13.80;99.90;;;;;;4989885;28;20184;-66
2023/10/24 03:26:00;;;;;;;1.77;1.67;;;13.90;99.90;;;;;;4989101;28;20218;-66
2023/10/24 03:28:26;;;;;;;2.43;1.70;;;13.90;99.90;;;;;;4990489;28;20222;-66
2023/10/24 03:31:02;;;;;;;1.70;1.60;;;13.90;99.90;;;;;;4989703;28;20505;-67
2023/10/24 03:33:28;;;;;;;1.40;1.30;;;13.90;99.90;;;;;;4989399;28;20200;-68
2023/10/24 03:35:54;;;;;;;2.33;1.43;;;13.80;99.90;;;;;;4988687;28;20510;-64
2023/10/24 03:38:20;;;;;;;1.87;1.30;;;13.80;99.90;;;;;;4990330;28;20434;-64
2023/10/24 03:40:45;;;;;;;2.70;2.03;;;13.80;99.90;;;;;;4989915;28;20192;-64
2023/10/24 03:43:11;;;;;;;2.13;1.80;;;13.90;99.90;;;;;;4987807;28;20891;-65
2023/10/24 03:45:37;;;;;;;2.60;1.83;;;13.80;99.90;;;;;;4987764;28;20259;-67
2023/10/24 03:48:04;;;;;;;2.00;1.50;;;13.90;99.90;;;;;;4989474;28;20190;-66
2023/10/24 03:50:29;;;;;;;2.83;1.83;;;13.90;99.90;;;;;;4989501;28;20521;-64
2023/10/24 03:52:55;;;;;;;2.40;1.87;;;13.80;99.90;;;;;;4989015;28;20446;-66
2023/10/24 03:55:21;;;;;;;2.03;1.70;;;13.80;99.90;;;;;;4989460;28;20229;-64
2023/10/24 03:57:46;;;;;;;4.60;2.90;;;13.80;99.90;;;;;;4988921;28;20192;-67
2023/10/24 04:00:13;;;;;;;2.00;1.90;;;13.70;99.90;;;;;;4989236;28;20512;-66
2023/10/24 04:02:39;;;;;;;2.47;1.63;;;13.70;99.90;;;;;;4988403;28;20193;-65
2023/10/24 04:05:06;;;;;;;3.50;1.67;;;13.70;99.90;;;;;;4988117;28;20913;-66
2023/10/24 04:07:32;;;;;;;2.83;2.00;;;13.70;99.90;;;;;;4989866;28;20307;-64
2023/10/24 04:09:58;;;;;;;4.50;2.37;;;13.60;99.90;;;;;;4989050;28;21479;-65
2023/10/24 04:12:24;;;;;;;3.60;2.30;;;13.70;99.90;;;;;;4988234;28;20180;-65
2023/10/24 04:14:49;;;;;;;2.60;2.40;;;13.70;99.90;;;;;;4989144;28;20229;-64
2023/10/24 04:17:15;;;;;;;2.73;2.07;;;13.60;99.90;;;;;;4989480;28;20196;-66
2023/10/24 04:19:41;;;;;;;2.87;1.93;;;13.60;99.90;;;;;;4991513;28;20959;-65
2023/10/24 04:22:06;;;;;;;3.10;2.00;;;13.60;99.90;;;;;;4991006;28;20211;-66
2023/10/24 04:24:32;;;;;;;1.87;1.77;;;13.60;99.90;;;;;;4991928;28;20210;-66
2023/10/24 04:26:58;;;;;;;2.67;2.17;;;13.50;99.90;;;;;;4989731;28;20214;-64
2023/10/24 04:29:23;;;;;;;7.70;1.93;;;13.50;99.90;;;;;;4989700;28;20199;-68
2023/10/24 04:31:49;;;;;;;2.57;1.87;;;13.50;99.90;;;;;;4988986;28;20183;-65
2023/10/24 04:34:15;;;;;;;3.20;1.93;;;13.60;99.90;;;;;;5003158;28;20282;-67
2023/10/24 04:36:41;;;;;;;2.17;1.97;;;13.60;99.90;;;;;;4988796;28;20273;-66
2023/10/24 04:39:06;;;;;;;3.40;2.70;;;13.50;99.90;;;;;;4988480;28;20274;-64
2023/10/24 04:41:32;;;;;;;4.37;2.37;;;13.40;99.90;;;;;;4988981;28;20194;-64
2023/10/24 04:43:58;;;;;;;2.47;2.27;;;13.40;99.90;;;;;;4986609;28;20226;-64
2023/10/24 04:46:23;;;;;;;2.30;2.10;;;13.40;99.90;;;;;;4988750;28;20256;-64
2023/10/24 04:48:49;;;;;;;3.30;3.00;;;13.40;99.90;;;;;;4988119;28;20270;-64
2023/10/24 04:51:15;;;;;;;3.00;2.70;;;13.40;99.90;;;;;;4988375;28;20267;-64
2023/10/24 04:53:41;;;;;;;5.33;3.27;;;13.40;99.90;;;;;;4986658;28;20187;-65
2023/10/24 04:56:06;;;;;;;3.10;2.63;;;13.40;99.90;;;;;;4982610;28;20215;-68
2023/10/24 04:58:32;;;;;;;4.63;2.70;;;13.40;99.90;;;;;;4987534;28;21050;-67
2023/10/24 05:00:58;;;;;;;3.20;2.50;;;13.50;99.90;;;;;;4984518;28;20223;-65
2023/10/24 05:03:23;;;;;;;2.63;2.43;;;13.50;99.90;;;;;;4986796;28;20839;-67
2023/10/24 05:05:49;;;;;;;3.53;2.80;;;13.40;99.90;;;;;;4987773;28;21143;-66
2023/10/24 05:08:15;;;;;;;3.10;2.70;;;13.40;99.90;;;;;;4987941;28;20192;-65
2023/10/24 05:10:41;;;;;;;2.97;2.33;;;13.30;99.90;;;;;;4992129;28;20179;-65
2023/10/24 05:13:06;;;;;;;4.30;2.70;;;13.30;99.90;;;;;;5006004;28;20196;-64
2023/10/24 05:15:32;;;;;;;3.03;2.40;;;13.30;99.90;;;;;;5007775;28;20281;-64
2023/10/24 05:17:58;;;;;;;2.70;2.50;;;13.30;99.90;;;;;;4991096;28;20191;-66
2023/10/24 05:20:23;;;;;;;3.00;2.73;;;13.20;99.90;;;;;;4991079;28;20887;-63
2023/10/24 05:22:49;;;;;;;2.77;2.57;;;13.20;99.90;;;;;;4991898;28;20270;-65
2023/10/24 05:25:16;;;;;;;2.63;2.43;;;13.20;99.90;;;;;;4988034;28;20254;-66
2023/10/24 05:27:42;;;;;;;3.17;2.40;;;13.20;99.90;;;;;;4992789;28;20278;-64
2023/10/24 05:30:10;;;;;;;2.57;2.37;;;13.20;99.90;;;;;;4991376;28;20813;-63
2023/10/24 05:32:36;;;;;;;2.67;2.47;;;13.20;99.90;;;;;;4990771;28;20271;-64
2023/10/24 05:35:02;;;;;;;3.20;2.23;;;13.10;99.90;;;;;;4990145;28;20470;-66
2023/10/24 05:37:27;;;;;;;2.37;2.17;;;13.20;99.90;;;;;;4989550;28;20604;-65
2023/10/24 05:39:53;;;;;;;4.00;2.07;;;13.20;99.90;;;;;;4992187;28;20897;-64
2023/10/24 05:42:19;;;;;;;2.30;2.10;;;13.20;99.90;;;;;;4990875;28;20192;-64
2023/10/24 05:44:44;;;;;;;2.30;2.10;;;13.10;99.90;;;;;;4990306;28;20222;-67
2023/10/24 05:47:10;;;;;;;2.60;2.40;;;13.20;99.90;;;;;;4991846;28;20187;-67
2023/10/24 05:49:37;;;;;;;2.50;2.30;;;13.20;99.90;;;;;;4990926;28;20187;-64
2023/10/24 05:52:03;;;;;;;2.47;2.10;;;13.20;99.90;;;;;;4992174;28;20628;-63
2023/10/24 05:54:28;;;;;;;2.43;2.23;;;13.20;99.90;;;;;;4989576;28;20435;-65
2023/10/24 05:56:54;;;;;;;2.70;2.50;;;13.20;99.90;;;;;;4987322;28;20523;-66
2023/10/24 05:59:20;;;;;;;2.80;2.60;;;13.20;99.90;;;;;;4985845;28;20191;-64
2023/10/24 06:01:45;;;;;;;6.93;3.10;;;13.20;99.90;;;;;;4989873;28;20187;-66
2023/10/24 06:04:11;;;;;;;3.23;3.00;;;13.30;99.90;;;;;;4988256;28;20187;-66
2023/10/24 06:06:37;;;;;;;3.13;2.83;;;13.30;99.90;;;;;;4990485;28;20289;-67
2023/10/24 06:09:03;;;;;;;3.23;2.77;;;13.30;99.90;;;;;;4990227;28;20187;-64
2023/10/24 06:11:28;;;;;;;4.00;3.70;;;13.20;99.90;;;;;;4987652;28;20184;-63
2023/10/24 06:13:54;;;;;;;3.67;3.37;;;13.20;99.90;;;;;;4986652;28;20457;-67
2023/10/24 06:16:20;;;;;;;3.17;2.87;;;13.20;99.90;;;;;;4988331;28;20187;-67
2023/10/24 06:18:45;;;;;;;3.13;2.93;;;13.20;99.90;;;;;;4989966;28;20190;-64
2023/10/24 06:21:12;;;;;;;4.00;3.20;;;13.10;99.90;;;;;;4990457;28;20183;-65
2023/10/24 06:23:38;;;;;;;3.13;2.67;;;13.20;99.90;;;;;;4986302;28;20185;-65
2023/10/24 06:26:10;;;;;;;3.20;2.97;;;13.00;99.90;;;;;;4990373;28;20478;-66
2023/10/24 06:28:35;;;;;;;3.37;2.90;;;12.90;99.90;;;;;;4990132;28;20953;-64
2023/10/24 06:31:04;;;;;;;3.40;3.10;;;13.00;99.90;;;;;;4990506;28;20434;-65
2023/10/24 06:33:30;;;;;;;2.90;2.60;;;13.00;99.90;;;;;;4989847;28;20342;-66
2023/10/24 06:35:57;;;;;;;2.80;2.57;;;13.00;99.90;;;;;;4990130;28;20466;-67
2023/10/24 06:38:23;;;;;;;3.30;2.80;;;12.90;99.90;;;;;;4991504;28;20460;-65
2023/10/24 06:40:49;;;;;;;2.87;2.67;;;12.90;99.90;;;;;;4990021;28;20438;-66
2023/10/24 06:43:16;;;;;;;2.97;2.67;;;12.90;99.90;;;;;;5005549;28;20430;-66
2023/10/24 06:45:43;;;;;;;2.50;2.30;;;13.00;99.90;;;;;;4988434;28;20568;-65
2023/10/24 06:48:11;;;;;;;3.40;2.33;;;12.90;99.90;;;;;;4990736;28;20470;-66
2023/10/24 06:50:38;;;;;;;2.63;2.43;;;12.90;99.90;;;;;;4988060;28;21018;-63
2023/10/24 06:53:04;;;;;;;2.57;2.10;;;12.90;99.90;;;;;;4989750;28;20434;-65
2023/10/24 06:55:30;;;;;;;3.53;2.27;;;12.90;99.90;;;;;;4988475;28;20434;-65
2023/10/24 06:57:58;;;;;;;3.13;2.30;;;12.90;99.90;;;;;;5005028;28;20443;-64
2023/10/24 07:00:24;;;;;;;2.33;2.13;;;12.90;99.90;;;;;;4991285;28;20194;-66
2023/10/24 07:02:50;;;;;;;4.30;2.27;;;12.90;99.90;;;;;;4989645;28;20427;-67
2023/10/24 07:05:16;;;;;;;1.87;1.73;;;12.90;99.90;;;;;;4990319;28;20473;-63
2023/10/24 07:07:41;;;;;;;2.20;2.00;;;12.90;99.90;;;;;;4991328;28;20187;-64
2023/10/24 07:10:08;;;;;;;2.63;2.30;;;13.00;99.90;;;;;;4985992;28;20203;-66
2023/10/24 07:12:33;;;;;;;2.40;2.20;;;13.00;99.90;;;;;;5003324;28;20191;-63
2023/10/24 07:14:59;;;;;;;2.47;1.70;;;13.00;99.90;;;;;;4992755;28;20447;-65
2023/10/24 07:17:25;;;;;;;2.20;2.00;;;13.00;99.90;;;;;;4992562;28;20261;-62
2023/10/24 07:19:51;;;;;;;1.70;1.60;;;13.10;99.90;;;;;;4988921;28;20193;-65
2023/10/24 07:22:17;;;;;;;2.73;2.00;;;13.10;99.90;;;;;;4990272;28;20851;-67
2023/10/24 07:24:43;;;;;;;2.03;1.93;;;13.10;99.90;;;;;;4988409;28;20218;-67
2023/10/24 07:27:10;;;;;;;2.37;1.80;;;13.00;99.90;;;;;;4990191;28;20263;-64
2023/10/24 07:29:36;;;;;;;2.47;2.00;;;13.10;99.90;;;;;;4990282;28;20191;-65
2023/10/24 07:32:01;;;;;;;1.90;1.67;;;13.10;99.90;;;;;;4989620;28;20882;-65
2023/10/24 07:34:32;;;;;;;2.40;1.50;;;13.10;99.90;;;;;;4989632;28;20431;-64
2023/10/24 07:36:58;;;;;;;2.37;1.90;;;13.20;99.90;;;;;;4988538;28;20195;-67
2023/10/24 07:39:24;;;;;;;2.20;1.50;;;13.20;99.90;;;;;;4990286;28;20434;-64
2023/10/24 07:41:50;;;;;;;5.00;1.50;;;13.20;99.90;;;;;;4989145;28;20457;-65
2023/10/24 07:44:16;;;;;;;2.03;1.30;;;13.20;99.90;;;;;;4987820;28;20730;-64
2023/10/24 07:46:41;;;;;;;2.07;1.57;;;13.20;99.90;;;;;;4988622;28;20572;-65
2023/10/24 07:49:07;;;;;;;2.60;1.50;;;13.20;99.90;;;;;;4990057;28;20191;-66
2023/10/24 07:51:33;;;;;;;2.20;1.30;;;13.20;99.90;;;;;;4989819;28;20209;-66
2023/10/24 07:53:58;;;;;;;2.03;1.50;;;13.20;99.90;;;;;;4988600;28;20191;-67
2023/10/24 07:56:24;;;;;;;2.50;1.80;;;13.20;99.90;;;;;;4989339;28;20637;-67
2023/10/24 07:58:50;;;;;;;2.63;1.30;;;13.20;99.90;;;;;;4989408;28;20189;-66
2023/10/24 08:01:18;;;;;;;1.40;1.00;;;13.20;99.90;;;;;;4987701;28;20259;-67
2023/10/24 08:03:44;;;;;;;1.37;1.00;;;13.20;99.90;;;;;;4988404;28;20192;-65
2023/10/24 08:06:10;;;;;;;1.40;1.30;;;13.20;99.90;;;;;;4988179;28;20832;-67
2023/10/24 08:08:36;;;;;;;3.43;1.60;;;13.20;99.90;;;;;;4989528;28;20501;-67
2023/10/24 08:11:02;;;;;;;2.10;1.37;;;13.20;99.90;;;;;;4989103;28;20423;-64
2023/10/24 08:13:28;;;;;;;2.63;1.60;;;13.20;99.90;;;;;;4982265;28;20245;-66
2023/10/24 08:15:58;;;;;;;1.93;1.10;;;13.20;99.90;;;;;;4987710;28;20431;-67
2023/10/24 08:18:24;;;;;;;1.30;1.20;;;13.20;99.90;;;;;;4989498;28;20435;-65
2023/10/24 08:20:50;;;;;;;2.33;1.30;;;13.20;99.90;;;;;;4988653;28;20441;-64
2023/10/24 08:23:16;;;;;;;2.87;1.77;;;13.20;99.90;;;;;;4986622;28;20439;-66
2023/10/24 08:25:42;;;;;;;1.60;1.20;;;13.30;99.90;;;;;;4988699;28;20211;-67
2023/10/24 08:28:07;;;;;;;1.60;1.50;;;13.30;99.90;;;;;;4989079;28;20191;-67
2023/10/24 08:30:34;;;;;;;2.10;1.53;;;13.30;99.90;;;;;;4990316;28;20266;-66
2023/10/24 08:33:00;;;;;;;1.97;1.50;;;13.30;99.90;;;;;;4988918;28;20318;-66
2023/10/24 08:35:25;;;;;;;1.53;1.17;;;13.30;99.90;;;;;;4988638;28;20940;-68
2023/10/24 08:37:51;;;;;;;1.70;1.30;;;13.30;99.90;;;;;;4990720;28;20908;-64
2023/10/24 08:40:17;;;;;;;1.80;1.30;;;13.40;99.90;;;;;;4990623;28;20273;-65
2023/10/24 08:42:43;;;;;;;1.90;1.50;;;13.40;99.90;;;;;;4990383;28;20187;-66
2023/10/24 08:45:10;;;;;;;1.83;1.20;;;13.40;99.90;;;;;;4986509;28;20309;-64
2023/10/24 08:47:36;;;;;;;1.63;1.53;;;13.40;99.90;;;;;;4987958;28;21404;-65
2023/10/24 08:50:03;;;;;;;1.90;1.53;;;13.40;99.90;;;;;;4988159;28;20458;-68
2023/10/24 08:52:31;;;;;;;1.43;1.27;;;13.40;99.90;;;;;;4989430;28;21299;-67
2023/10/24 08:55:03;;;;;;;1.33;1.23;;;13.40;99.90;;;;;;4987588;28;20493;-67
2023/10/24 08:57:42;;;;;;;1.73;1.40;;;13.30;99.90;;;;;;4989027;28;20478;-65
2023/10/24 09:00:10;;;;;;;2.20;1.47;;;13.30;99.90;;;;;;4987713;28;20516;-63
2023/10/24 09:02:38;;;;;;;2.03;1.40;;;13.40;99.90;;;;;;4988278;28;20435;-67
2023/10/24 09:05:05;;;;;;;2.10;1.20;;;13.40;99.90;;;;;;4987643;28;20493;-66
2023/10/24 09:07:31;;;;;;;1.40;1.30;;;13.40;99.90;;;;;;4988931;28;20513;-67
2023/10/24 09:09:57;;;;;;;1.53;1.30;;;13.40;99.90;;;;;;4988245;28;20459;-65
2023/10/24 09:12:23;;;;;;;1.20;1.10;;;13.50;99.90;;;;;;4988856;28;20184;-66
2023/10/24 09:14:48;;;;;;;1.90;1.13;;;13.50;99.90;;;;;;4987739;28;20620;-68
2023/10/24 09:17:15;;;;;;;2.17;1.30;;;13.50;99.90;;;;;;4988255;28;20446;-65
2023/10/24 09:19:42;;;;;;;1.67;1.53;;;13.50;99.90;;;;;;4989522;28;20187;-66
2023/10/24 09:22:18;;;;;;;2.07;1.40;;;13.50;99.90;;;;;;4987243;28;20426;-65
2023/10/24 09:24:45;;;;;;;1.30;1.20;;;13.50;99.90;;;;;;4987573;28;21106;-66
2023/10/24 09:27:12;;;;;;;2.07;1.33;;;13.50;99.90;;;;;;4987910;28;20426;-67
2023/10/24 09:29:38;;;;;;;2.10;1.60;;;13.60;99.90;;;;;;4988672;28;21024;-66
2023/10/24 09:32:04;;;;;;;1.93;1.20;;;13.60;99.90;;;;;;4988123;28;20484;-67
2023/10/24 09:34:31;;;;;;;1.77;1.63;;;13.60;99.90;;;;;;4987880;28;20198;-66
2023/10/24 09:37:07;;;;;;;1.30;1.20;;;13.60;99.90;;;;;;4987949;28;20514;-64
2023/10/24 09:39:52;;;;;;;1.50;1.27;;;13.60;99.90;;;;;;4987701;28;20916;-67
2023/10/24 09:42:28;;;;;;;2.50;1.50;;;13.60;99.90;;;;;;4986874;28;20415;-66
2023/10/24 09:45:06;;;;;;;2.00;1.23;;;13.60;99.90;;;;;;5002119;28;20474;-67
2023/10/24 09:47:32;;;;;;;2.13;1.50;;;13.70;99.90;;;;;;4988861;28;20430;-64
2023/10/24 09:49:59;;;;;;;1.30;1.20;;;13.70;99.90;;;;;;4988448;28;20433;-64
2023/10/24 09:52:26;;;;;;;1.47;1.37;;;13.80;99.90;;;;;;4988469;28;20427;-64
2023/10/24 09:54:52;;;;;;;1.37;1.27;;;13.70;99.90;;;;;;4989238;28;20430;-66
2023/10/24 09:57:19;;;;;;;2.60;1.60;;;13.70;99.90;;;;;;4991934;28;20537;-66
2023/10/24 09:59:47;;;;;;;2.17;1.50;;;13.70;99.90;;;;;;4992763;28;20434;-65
2023/10/24 10:02:14;;;;;;;2.37;1.30;;;13.80;99.90;;;;;;4992442;28;21286;-66
2023/10/24 10:04:41;;;;;;;3.00;1.40;;;13.90;99.90;;;;;;4992516;28;20540;-66
2023/10/24 10:07:11;;;;;;;1.70;1.60;;;13.90;99.90;;;;;;4992085;28;20431;-66
2023/10/24 10:09:39;;;;;;;1.73;1.43;;;14.00;99.90;;;;;;4991481;28;20458;-66
2023/10/24 10:12:10;;;;;;;4.40;1.73;;;14.00;99.90;;;;;;4990894;28;20530;-64
2023/10/24 10:14:45;;;;;;;1.63;1.50;;;14.10;99.90;;;;;;4991045;28;20443;-66
2023/10/24 10:17:14;;;;;;;1.90;1.30;;;14.10;99.90;;;;;;4990594;28;20426;-65
2023/10/24 10:20:04;;;;;;;3.00;1.50;;;14.10;99.90;;;;;;4998454;28;20425;-64
2023/10/24 10:22:39;;;;;;;2.00;1.37;;;14.20;99.90;;;;;;4990186;28;20480;-66
2023/10/24 10:25:14;;;;;;;2.70;1.67;;;14.20;99.90;;;;;;4989541;28;20948;-66
2023/10/24 10:27:39;;;;;;;2.70;1.60;;;14.30;99.90;;;;;;4991019;28;20422;-64
2023/10/24 10:30:25;;;;;;;3.43;1.60;;;14.40;99.90;;;;;;4990821;28;20481;-66
2023/10/24 10:32:54;;;;;;;1.97;1.40;;;14.50;99.90;;;;;;4990132;28;20248;-65
2023/10/24 10:35:20;;;;;;;2.00;1.50;;;14.60;99.90;;;;;;4989388;28;20430;-64
2023/10/24 10:38:04;;;;;;;4.50;2.03;;;14.80;99.90;;;;;;4991818;28;20429;-64
2023/10/24 10:40:30;;;;;;;4.23;1.63;;;14.80;99.90;;;;;;4990789;28;20747;-65
2023/10/24 10:42:56;;;;;;;2.93;2.13;;;15.00;99.90;;;;;;5005894;28;20530;-66
2023/10/24 10:45:29;;;;;;;1.50;1.40;;;15.00;99.90;;;;;;4989064;28;20218;-66
2023/10/24 10:48:02;;;;;;;2.57;1.90;;;15.10;99.90;;;;;;4990421;28;20465;-65
2023/10/24 10:50:33;;;;;;;2.53;1.67;;;15.10;99.90;;;;;;4990724;28;20954;-65
2023/10/24 10:53:14;;;;;;;2.27;1.40;;;15.10;99.90;;;;;;4989030;28;20534;-65
2023/10/24 10:56:03;;;;;;;2.37;1.53;;;15.20;99.90;;;;;;4991205;28;20911;-68
2023/10/24 10:58:43;;;;;;;2.30;1.70;;;15.20;99.90;;;;;;4988780;28;20431;-65
2023/10/24 11:01:21;;;;;;;1.80;1.70;;;15.10;99.90;;;;;;4990150;28;21287;-66
2023/10/24 11:03:49;;;;;;;3.73;1.80;;;15.10;99.90;;;;;;4990270;28;20423;-67
2023/10/24 11:06:16;;;;;;;1.50;1.40;;;15.10;99.90;;;;;;4989697;28;20477;-64
2023/10/24 11:09:09;;;;;;;1.67;1.57;;;15.00;99.90;;;;;;4991288;28;20540;-66
2023/10/24 11:11:37;;;;;;;1.90;1.33;;;15.00;99.90;;;;;;4989986;28;20427;-67
2023/10/24 11:14:21;;;;;;;2.53;1.87;;;15.00;99.90;;;;;;4990283;28;20449;-65
2023/10/24 11:16:50;;;;;;;2.10;1.60;;;15.00;99.90;;;;;;4990448;28;20454;-65
2023/10/24 11:19:24;;;;;;;2.50;1.63;;;15.00;99.90;;;;;;4990892;28;20465;-65
2023/10/24 11:21:52;;;;;;;2.17;1.70;;;14.90;99.90;;;;;;4990572;28;20437;-68
2023/10/24 11:24:22;;;;;;;2.87;1.80;;;14.90;99.90;;;;;;4989194;28;20449;-66
2023/10/24 11:26:54;;;;;;;4.77;1.90;;;14.90;99.90;;;;;;4990509;28;21049;-66
2023/10/24 11:29:20;;;;;;;1.90;1.70;;;14.80;99.90;;;;;;4991362;28;20497;-67
2023/10/24 11:31:46;;;;;;;1.70;1.60;;;14.80;99.90;;;;;;4991522;28;20427;-66
2023/10/24 11:34:13;;;;;;;3.00;2.10;;;14.80;99.90;;;;;;4989859;28;20445;-66
2023/10/24 11:36:43;;;;;;;3.30;1.90;;;14.80;99.90;;;;;;4989361;28;21263;-65
2023/10/24 11:39:13;;;;;;;1.90;1.80;;;14.80;99.90;;;;;;4990307;28;20423;-64
2023/10/24 11:41:43;;;;;;;2.47;1.47;;;14.80;99.90;;;;;;4988738;28;20426;-67
2023/10/24 11:44:11;;;;;;;2.23;2.00;;;14.80;99.90;;;;;;4988814;28;20454;-65
2023/10/24 11:46:41;;;;;;;2.00;1.50;;;14.80;99.90;;;;;;4989629;28;20849;-65
2023/10/24 11:49:07;;;;;;;3.73;1.87;;;14.80;99.90;;;;;;4989568;28;20435;-68
2023/10/24 11:51:33;;;;;;;3.50;1.80;;;14.90;99.90;;;;;;4989046;28;20434;-66
2023/10/24 11:54:06;;;;;;;1.97;1.87;;;14.90;99.90;;;;;;4988927;28;20438;-67
2023/10/24 11:56:32;;;;;;;2.70;2.00;;;14.90;99.90;;;;;;4989110;28;21024;-66
2023/10/24 11:58:59;;;;;;;3.93;2.50;;;14.90;99.90;;;;;;4989881;28;21252;-67
2023/10/24 12:01:29;;;;;;;3.17;2.00;;;14.90;99.90;;;;;;4988811;28;20441;-65
2023/10/24 12:03:56;;;;;;;1.97;1.77;;;14.90;99.90;;;;;;4988349;28;20470;-66
2023/10/24 12:06:23;;;;;;;2.60;2.17;;;14.80;99.90;;;;;;4989604;28;20477;-66
2023/10/24 12:08:49;;;;;;;3.47;2.00;;;14.80;99.90;;;;;;4989210;28;20602;-67
2023/10/24 12:11:16;;;;;;;1.70;1.60;;;14.80;99.90;;;;;;4989609;28;20419;-64
2023/10/24 12:13:42;;;;;;;4.90;2.00;;;14.80;99.90;;;;;;4988360;28;20933;-64
2023/10/24 12:16:08;;;;;;;2.13;1.77;;;14.80;99.90;;;;;;4989887;28;20578;-66
2023/10/24 12:18:33;;;;;;;2.20;2.10;;;14.70;99.90;;;;;;4988689;28;20200;-67
2023/10/24 12:20:59;;;;;;;2.00;1.80;;;14.80;99.90;;;;;;4989028;28;20442;-64
2023/10/24 12:23:26;;;;;;;1.80;1.60;;;14.80;99.90;;;;;;4989263;28;20194;-64
2023/10/24 12:25:54;;;;;;;2.70;1.70;;;14.80;99.90;;;;;;4988744;28;20251;-65
2023/10/24 12:28:20;;;;;;;2.63;1.77;;;14.80;99.90;;;;;;4988699;28;21015;-64
2023/10/24 12:30:46;;;;;;;3.47;1.63;;;14.70;99.90;;;;;;4989466;28;20423;-63
2023/10/24 12:33:12;;;;;;;2.00;1.80;;;14.70;99.90;;;;;;4988280;28;20183;-64
2023/10/24 12:35:38;;;;;;;1.47;1.37;;;14.60;99.90;;;;;;4988585;28;20956;-64
2023/10/24 12:38:05;;;;;;;1.93;1.60;;;14.60;99.90;;;;;;4989698;28;20437;-64
2023/10/24 12:40:30;;;;;;;2.70;2.00;;;14.60;99.90;;;;;;4988425;28;20194;-65
2023/10/24 12:42:56;;;;;;;1.60;1.40;;;14.50;99.90;;;;;;4988291;28;20423;-65
2023/10/24 12:45:22;;;;;;;2.60;1.90;;;14.40;99.90;;;;;;4987505;28;20222;-66
2023/10/24 12:47:49;;;;;;;1.77;1.67;;;14.40;99.90;;;;;;4988922;28;20597;-64